Star Herdla — LAVD4 — position and weather

sailwx.info

Track history (hours):
 
Tides and Currents Weather Stations Pressure Air Temp Water Temp Dewpoint Dewpoint Depression Visibility Wind Speed Wind Dir Waves Ship Positions

Star Herdla

Last reported at 2017-Aug-24 06:00 UTC. Time now 2017-Aug-24 09:01 UTC.
Position S 11°36' E 089°54'.

Type: Ship (hazmat cat C). MMSI: 258954000.

Wind from 120 at 25 knots

Barometer 1014.6 mb
Air temperature 26.0 ° C
Visibility: greater than 10.8 NM
Dewpoint 26.0 ° C

Date/timePositionNaut miles runAvg speedWind from/ knotsBaromVisibWave heightAir tempDewpointWater temp
2017-Aug-24 06:00S 11°36' E 089°54'7512.4 120 / 251014.610.8 26.026.0
2017-Aug-24 00:00S 11°12' E 091°06'6911.5 110 / 291013.038.3 25.524.124.0
2017-Aug-23 18:00S 10°48' E 092°12'7712.8 120 / 261013.810.8 26.026.0
2017-Aug-23 12:00S 10°18' E 093°24'23012.8 100 / 251011.010.8 27.025.625.0
2017-Aug-22 18:00S 09°06' E 097°06'7512.5 100 / 161013.0 5.4 26.525.826.0
2017-Aug-22 12:00S 08°42' E 098°18'9415.7 110 / 171009.510.8 27.526.827.0
2017-Aug-22 06:00S 08°12' E 099°48'77315.3 100 / 211011.010.8 27.027.026.0
2017-Aug-20 03:25S 06°47' E 112°43'512.0
2017-Aug-20 03:01S 06°52' E 112°45'612.2
2017-Aug-20 02:30S 06°58' E 112°43'815.5
2017-Aug-20 02:00S 07°05' E 112°40'713.5
2017-Aug-20 01:30S 07°11' E 112°42'2 3.9
2017-Aug-20 01:00S 07°12' E 112°44'0 0.0
2017-Aug-19 23:38S 07°12' E 112°44'0 0.0
2017-Aug-19 23:25S 07°12' E 112°44'0 0.0
2017-Aug-19 23:00S 07°12' E 112°44'0 0.0
2017-Aug-19 22:22S 07°12' E 112°44'0 0.0
2017-Aug-19 20:31S 07°12' E 112°44'0 0.0
2017-Aug-19 20:16S 07°12' E 112°44'0 0.0
2017-Aug-19 19:52S 07°12' E 112°44'0 0.0
2017-Aug-19 17:07S 07°12' E 112°44'0 0.0
2017-Aug-19 16:43S 07°12' E 112°44'0 0.0
2017-Aug-19 15:58S 07°12' E 112°44'0 0.0
2017-Aug-19 13:55S 07°12' E 112°44'0 0.0
2017-Aug-19 12:28S 07°12' E 112°44'0 0.0
2017-Aug-19 11:49S 07°12' E 112°44'0 0.0
2017-Aug-19 11:19S 07°12' E 112°44'0 0.0
2017-Aug-19 10:58S 07°12' E 112°44'0 0.0
2017-Aug-19 10:25S 07°12' E 112°44'0 0.0
2017-Aug-19 09:52S 07°12' E 112°44'0 0.0
2017-Aug-19 09:19S 07°12' E 112°44'0 0.0
2017-Aug-19 08:46S 07°12' E 112°44'0 0.0
2017-Aug-19 08:13S 07°12' E 112°44'0 0.0
2017-Aug-19 07:19S 07°12' E 112°44'0 0.0
2017-Aug-19 06:58S 07°12' E 112°44'0 0.0
2017-Aug-19 06:07S 07°12' E 112°44'0 0.0
2017-Aug-19 05:46S 07°12' E 112°44'0 0.0
2017-Aug-19 05:28S 07°12' E 112°44'0 0.0
2017-Aug-19 04:37S 07°12' E 112°44'0 0.0
2017-Aug-19 04:25S 07°12' E 112°44'0 0.0
2017-Aug-19 03:55S 07°12' E 112°44'0 0.0
2017-Aug-19 00:49S 07°12' E 112°44'0 0.0
2017-Aug-18 22:13S 07°12' E 112°44'0 0.1
2017-Aug-18 21:35S 07°12' E 112°44'0 3.9
2017-Aug-18 21:28S 07°12' E 112°43'3 7.4
2017-Aug-18 21:00S 07°10' E 112°40'713.2
2017-Aug-18 20:28S 07°03' E 112°40'713.0
2017-Aug-18 19:57S 06°57' E 112°43'511.4
2017-Aug-18 19:30S 06°52' E 112°45'1 2.0
2017-Aug-18 19:00S 06°51' E 112°45'5 9.7
2017-Aug-18 18:29S 06°47' E 112°42'  
2017-Aug-14 16:20N 01°15' E 104°00'3 7.4
2017-Aug-14 15:57N 01°17' E 103°58'1 0.2
2017-Aug-14 13:01N 01°17' E 103°58'0 0.0
2017-Aug-14 12:43N 01°17' E 103°58'0 0.0
2017-Aug-14 08:49N 01°17' E 103°58'0 0.0
2017-Aug-14 06:58N 01°17' E 103°58'  
Track history (hours):
 
Tides and Currents Weather Stations Pressure Air Temp Water Temp Dewpoint Dewpoint Depression Visibility Wind Speed Wind Dir Waves Ship Positions

Star Herdla

Last reported at 2017-Aug-24 06:00 UTC. Time now 2017-Aug-24 09:01 UTC.
Position S 11°36' E 089°54'.

Type: Ship (hazmat cat C). MMSI: 258954000.

Wind from 120 at 25 knots

Barometer 1014.6 mb
Air temperature 26.0 ° C
Visibility: greater than 10.8 NM
Dewpoint 26.0 ° C

Date/timePositionNaut miles runAvg speedWind from/ knotsBaromVisibWave heightAir tempDewpointWater temp
2017-Aug-24 06:00S 11°36' E 089°54'7512.4 120 / 251014.610.8 26.026.0
2017-Aug-24 00:00S 11°12' E 091°06'6911.5 110 / 291013.038.3 25.524.124.0
2017-Aug-23 18:00S 10°48' E 092°12'7712.8 120 / 261013.810.8 26.026.0
2017-Aug-23 12:00S 10°18' E 093°24'23012.8 100 / 251011.010.8 27.025.625.0
2017-Aug-22 18:00S 09°06' E 097°06'7512.5 100 / 161013.0 5.4 26.525.826.0
2017-Aug-22 12:00S 08°42' E 098°18'9415.7 110 / 171009.510.8 27.526.827.0
2017-Aug-22 06:00S 08°12' E 099°48'77315.3 100 / 211011.010.8 27.027.026.0
2017-Aug-20 03:25S 06°47' E 112°43'512.0
2017-Aug-20 03:01S 06°52' E 112°45'612.2
2017-Aug-20 02:30S 06°58' E 112°43'815.5
2017-Aug-20 02:00S 07°05' E 112°40'713.5
2017-Aug-20 01:30S 07°11' E 112°42'2 3.9
2017-Aug-20 01:00S 07°12' E 112°44'0 0.0
2017-Aug-19 23:38S 07°12' E 112°44'0 0.0
2017-Aug-19 23:25S 07°12' E 112°44'0 0.0
2017-Aug-19 23:00S 07°12' E 112°44'0 0.0
2017-Aug-19 22:22S 07°12' E 112°44'0 0.0
2017-Aug-19 20:31S 07°12' E 112°44'0 0.0
2017-Aug-19 20:16S 07°12' E 112°44'0 0.0
2017-Aug-19 19:52S 07°12' E 112°44'0 0.0
2017-Aug-19 17:07S 07°12' E 112°44'0 0.0
2017-Aug-19 16:43S 07°12' E 112°44'0 0.0
2017-Aug-19 15:58S 07°12' E 112°44'0 0.0
2017-Aug-19 13:55S 07°12' E 112°44'0 0.0
2017-Aug-19 12:28S 07°12' E 112°44'0 0.0
2017-Aug-19 11:49S 07°12' E 112°44'0 0.0
2017-Aug-19 11:19S 07°12' E 112°44'0 0.0
2017-Aug-19 10:58S 07°12' E 112°44'0 0.0
2017-Aug-19 10:25S 07°12' E 112°44'0 0.0
2017-Aug-19 09:52S 07°12' E 112°44'0 0.0
2017-Aug-19 09:19S 07°12' E 112°44'0 0.0
2017-Aug-19 08:46S 07°12' E 112°44'0 0.0
2017-Aug-19 08:13S 07°12' E 112°44'0 0.0
2017-Aug-19 07:19S 07°12' E 112°44'0 0.0
2017-Aug-19 06:58S 07°12' E 112°44'0 0.0
2017-Aug-19 06:07S 07°12' E 112°44'0 0.0
2017-Aug-19 05:46S 07°12' E 112°44'0 0.0
2017-Aug-19 05:28S 07°12' E 112°44'0 0.0
2017-Aug-19 04:37S 07°12' E 112°44'0 0.0
2017-Aug-19 04:25S 07°12' E 112°44'0 0.0
2017-Aug-19 03:55S 07°12' E 112°44'0 0.0
2017-Aug-19 00:49S 07°12' E 112°44'0 0.0
2017-Aug-18 22:13S 07°12' E 112°44'0 0.1
2017-Aug-18 21:35S 07°12' E 112°44'0 3.9
2017-Aug-18 21:28S 07°12' E 112°43'3 7.4
2017-Aug-18 21:00S 07°10' E 112°40'713.2
2017-Aug-18 20:28S 07°03' E 112°40'713.0
2017-Aug-18 19:57S 06°57' E 112°43'511.4
2017-Aug-18 19:30S 06°52' E 112°45'1 2.0
2017-Aug-18 19:00S 06°51' E 112°45'5 9.7
2017-Aug-18 18:29S 06°47' E 112°42'  
2017-Aug-14 16:20N 01°15' E 104°00'3 7.4
2017-Aug-14 15:57N 01°17' E 103°58'1 0.2
2017-Aug-14 13:01N 01°17' E 103°58'0 0.0
2017-Aug-14 12:43N 01°17' E 103°58'0 0.0
2017-Aug-14 08:49N 01°17' E 103°58'0 0.0
2017-Aug-14 06:58N 01°17' E 103°58'  

Dump ship's entire track history